Time;durP1;ratioP1;P1;durP2;ratioP2;P2;SDS_P1;SDS_P2;PMS_P1;PMS_P2;Temp;Humidity;BMP_temperature;BMP_pressure;BME280_temperature;BME280_humidity;BME280_pressure;Samples;Min_cycle;Max_cycle;Signal;HPM_P1;HPM_P2
2021/04/20 00:01:55;;;;;;;;;;;11.50;66.80;;;;;;4936709;29;19933;-92
2021/04/20 00:04:20;;;;;;;;;;;11.50;66.90;;;;;;4927195;29;19955;-93
2021/04/20 00:06:45;;;;;;;;;;;11.50;66.90;;;;;;4938077;29;20289;-92
2021/04/20 00:09:11;;;;;;;;;;;11.50;66.90;;;;;;4937609;29;19911;-91
2021/04/20 00:11:37;;;;;;;;;;;11.50;66.80;;;;;;4937921;29;19954;-92
2021/04/20 00:14:04;;;;;;;;;;;11.50;66.90;;;;;;4936389;29;19911;-91
2021/04/20 00:16:29;;;;;;;;;;;11.40;67.10;;;;;;4936600;29;19910;-92
2021/04/20 00:18:55;;;;;;;;;;;11.40;67.20;;;;;;4937122;29;19937;-90
2021/04/20 00:21:20;;;;;;;;;;;11.40;67.20;;;;;;4937384;29;19938;-91
2021/04/20 00:23:46;;;;;;;;;;;11.50;67.20;;;;;;4928907;29;19918;-90
2021/04/20 00:26:11;;;;;;;;;;;11.40;67.30;;;;;;4936914;29;19918;-90
2021/04/20 00:28:37;;;;;;;;;;;11.40;67.30;;;;;;4935958;29;19914;-89
2021/04/20 00:31:02;;;;;;;;;;;11.40;67.30;;;;;;4923013;29;19953;-90
2021/04/20 00:33:27;;;;;;;;;;;11.40;67.20;;;;;;4937628;29;19911;-90
2021/04/20 00:35:53;;;;;;;;;;;11.40;67.40;;;;;;4929239;29;19991;-90
2021/04/20 00:38:19;;;;;;;;;;;11.40;67.40;;;;;;4926615;29;19910;-90
2021/04/20 00:40:44;;;;;;;;;;;11.40;67.50;;;;;;4939551;29;19914;-91
2021/04/20 00:43:10;;;;;;;;;;;11.30;67.70;;;;;;4939592;29;19921;-90
2021/04/20 00:45:36;;;;;;;;;;;11.30;67.80;;;;;;4939344;29;20330;-89
2021/04/20 00:48:02;;;;;;;;;;;11.30;67.80;;;;;;4936352;29;19919;-89
2021/04/20 00:50:29;;;;;;;;;;;11.30;67.90;;;;;;4935929;29;19911;-88
2021/04/20 00:52:55;;;;;;;;;;;11.30;68.10;;;;;;4931076;29;20334;-88
2021/04/20 00:55:20;;;;;;;;;;;11.20;68.20;;;;;;4927461;29;19939;-87
2021/04/20 00:57:46;;;;;;;;;;;11.20;68.30;;;;;;4916934;29;20358;-88
2021/04/20 01:00:15;;;;;;;;;;;11.20;68.40;;;;;;4920174;29;19959;-93
2021/04/20 01:02:41;;;;;;;;;;;11.20;68.40;;;;;;4935246;29;20429;-90
2021/04/20 01:05:12;;;;;;;;;;;11.20;68.40;;;;;;4925904;29;19961;-88
2021/04/20 01:07:38;;;;;;;;;;;11.20;68.40;;;;;;4936625;29;19919;-91
2021/04/20 01:10:04;;;;;;;;;;;11.10;68.70;;;;;;4930198;29;20374;-91
2021/04/20 01:12:30;;;;;;;;;;;11.10;68.90;;;;;;4930781;29;19982;-91
2021/04/20 01:14:55;;;;;;;;;;;11.10;69.10;;;;;;4936954;29;19917;-91
2021/04/20 01:17:27;;;;;;;;;;;11.10;69.30;;;;;;4926385;29;19910;-90
2021/04/20 01:19:58;;;;;;;;;;;11.10;69.40;;;;;;4929997;29;19914;-91
2021/04/20 01:22:31;;;;;;;;;;;11.10;69.50;;;;;;4930747;29;20271;-92
2021/04/20 01:24:57;;;;;;;;;;;11.10;69.50;;;;;;4920611;29;19911;-92
2021/04/20 01:27:23;;;;;;;;;;;11.00;69.40;;;;;;4916333;29;19922;-91
2021/04/20 01:29:59;;;;;;;;;;;11.10;69.50;;;;;;4928424;29;19910;-90
2021/04/20 01:32:25;;;;;;;;;;;11.00;69.40;;;;;;4942754;29;19907;-90
2021/04/20 01:34:51;;;;;;;;;;;11.00;69.60;;;;;;4935612;29;20421;-91
2021/04/20 01:37:17;;;;;;;;;;;11.00;69.70;;;;;;4936396;29;19907;-90
2021/04/20 01:39:43;;;;;;;;;;;11.00;69.80;;;;;;4935331;29;19907;-89
2021/04/20 01:42:09;;;;;;;;;;;11.00;69.70;;;;;;4935570;29;19985;-90
2021/04/20 01:44:35;;;;;;;;;;;11.00;69.70;;;;;;4950135;29;20512;-91
2021/04/20 01:47:00;;;;;;;;;;;11.00;69.80;;;;;;4937614;29;20038;-89
2021/04/20 01:49:26;;;;;;;;;;;11.00;69.80;;;;;;4936887;29;19910;-91
2021/04/20 01:51:54;;;;;;;;;;;11.00;69.80;;;;;;4927845;29;19915;-90
2021/04/20 01:54:20;;;;;;;;;;;11.00;69.80;;;;;;4926236;29;19907;-91
2021/04/20 01:56:47;;;;;;;;;;;11.00;69.90;;;;;;4934740;29;20021;-91
2021/04/20 01:59:13;;;;;;;;;;;11.00;69.80;;;;;;4934900;29;19907;-90
2021/04/20 02:01:38;;;;;;;;;;;11.00;69.90;;;;;;4932361;29;19915;-89
2021/04/20 02:04:04;;;;;;;;;;;10.90;69.80;;;;;;4928374;29;19954;-90
2021/04/20 02:06:29;;;;;;;;;;;11.00;69.90;;;;;;4934148;29;19922;-90
2021/04/20 02:08:55;;;;;;;;;;;10.90;70.00;;;;;;4921138;29;19918;-89
2021/04/20 02:11:22;;;;;;;;;;;10.90;70.00;;;;;;4916431;29;19985;-89
2021/04/20 02:13:47;;;;;;;;;;;10.90;69.90;;;;;;4921555;29;20001;-89
2021/04/20 02:16:14;;;;;;;;;;;10.90;69.90;;;;;;4935404;29;20001;-90
2021/04/20 02:18:41;;;;;;;;;;;10.90;70.00;;;;;;4942244;28;19918;-89
2021/04/20 02:21:07;;;;;;;;;;;10.90;70.00;;;;;;4946986;28;19915;-89
2021/04/20 02:23:34;;;;;;;;;;;10.90;70.30;;;;;;4943926;29;19906;-91
2021/04/20 02:26:05;;;;;;;;;;;10.90;70.10;;;;;;4934958;29;19922;-91
2021/04/20 02:28:31;;;;;;;;;;;10.90;70.10;;;;;;4934473;29;19926;-90
2021/04/20 02:30:58;;;;;;;;;;;10.90;70.10;;;;;;4936687;28;19907;-90
2021/04/20 02:33:23;;;;;;;;;;;10.90;70.10;;;;;;4934151;29;19957;-90
2021/04/20 02:35:49;;;;;;;;;;;10.90;70.20;;;;;;4933126;29;19950;-90
2021/04/20 02:38:14;;;;;;;;;;;10.90;70.10;;;;;;4937521;29;19906;-90
2021/04/20 02:40:40;;;;;;;;;;;10.90;70.00;;;;;;4926537;29;19917;-89
2021/04/20 02:43:06;;;;;;;;;;;10.90;70.10;;;;;;4949883;28;19911;-90
2021/04/20 02:45:32;;;;;;;;;;;10.90;70.10;;;;;;4936296;29;19917;-90
2021/04/20 02:47:57;;;;;;;;;;;10.90;70.00;;;;;;4925526;29;19994;-90
2021/04/20 02:50:27;;;;;;;;;;;10.90;70.10;;;;;;4931842;29;20348;-89
2021/04/20 02:52:53;;;;;;;;;;;10.90;69.90;;;;;;4916830;29;20401;-89
2021/04/20 02:55:19;;;;;;;;;;;10.80;69.80;;;;;;4927616;29;20009;-88
2021/04/20 02:57:52;;;;;;;;;;;10.90;69.90;;;;;;4916311;29;19911;-89
2021/04/20 03:00:19;;;;;;;;;;;10.90;69.80;;;;;;4920922;29;19911;-88
2021/04/20 03:02:45;;;;;;;;;;;10.90;69.70;;;;;;4926437;29;19946;-88
2021/04/20 03:05:15;;;;;;;;;;;10.80;69.60;;;;;;4916570;29;20005;-88
2021/04/20 03:07:41;;;;;;;;;;;10.80;69.50;;;;;;4931824;29;20279;-88
2021/04/20 03:10:07;;;;;;;;;;;10.70;69.40;;;;;;4939056;28;19922;-88
2021/04/20 03:12:34;;;;;;;;;;;10.60;69.60;;;;;;4931870;29;20157;-88
2021/04/20 03:15:00;;;;;;;;;;;10.50;69.60;;;;;;4933549;29;19949;-88
2021/04/20 03:17:26;;;;;;;;;;;10.50;69.70;;;;;;4925157;29;19919;-89
2021/04/20 03:19:51;;;;;;;;;;;10.40;69.70;;;;;;4936739;29;20380;-91
2021/04/20 03:22:18;;;;;;;;;;;10.30;69.60;;;;;;4933536;29;19911;-88
2021/04/20 03:25:02;;;;;;;;;;;10.30;69.60;;;;;;4924328;29;19911;-89
2021/04/20 03:27:28;;;;;;;;;;;10.20;69.60;;;;;;4927791;29;19935;-89
2021/04/20 03:29:53;;;;;;;;;;;10.10;69.60;;;;;;4936571;29;19911;-90
2021/04/20 03:32:19;;;;;;;;;;;10.00;69.70;;;;;;4938592;29;20384;-90
2021/04/20 03:34:48;;;;;;;;;;;9.90;69.70;;;;;;4943947;29;20364;-90
2021/04/20 03:37:17;;;;;;;;;;;9.80;69.70;;;;;;4946788;29;19970;-91
2021/04/20 03:39:45;;;;;;;;;;;9.70;69.80;;;;;;4937152;29;20462;-89
2021/04/20 03:42:15;;;;;;;;;;;9.60;69.80;;;;;;4936369;29;19911;-90
2021/04/20 03:44:51;;;;;;;;;;;9.50;69.80;;;;;;4936041;29;19950;-89
2021/04/20 03:47:23;;;;;;;;;;;9.50;70.00;;;;;;4933987;29;20437;-91
2021/04/20 03:49:49;;;;;;;;;;;9.40;70.00;;;;;;4929908;29;19911;-92
2021/04/20 03:52:36;;;;;;;;;;;9.40;70.00;;;;;;4918555;29;19914;-91
2021/04/20 03:55:02;;;;;;;;;;;9.30;70.10;;;;;;4939852;29;19911;-92
2021/04/20 03:57:28;;;;;;;;;;;9.30;70.00;;;;;;4936860;29;19923;-87
2021/04/20 03:59:56;;;;;;;;;;;9.20;70.00;;;;;;4934411;29;20375;-89
2021/04/20 04:02:22;;;;;;;;;;;9.10;70.10;;;;;;4935984;29;20277;-89
2021/04/20 04:04:48;;;;;;;;;;;9.10;70.90;;;;;;4934260;29;19910;-88
2021/04/20 04:07:15;;;;;;;;;;;9.10;70.40;;;;;;4933762;29;19929;-88
2021/04/20 04:09:41;;;;;;;;;;;9.00;70.30;;;;;;4934755;29;20005;-88
2021/04/20 04:12:08;;;;;;;;;;;9.00;70.30;;;;;;4934494;29;19911;-89
2021/04/20 04:14:34;;;;;;;;;;;9.00;70.20;;;;;;4923142;29;20425;-89
2021/04/20 04:17:02;;;;;;;;;;;9.00;70.30;;;;;;4932031;29;19911;-90
2021/04/20 04:19:28;;;;;;;;;;;9.00;70.20;;;;;;4935814;29;19910;-90
2021/04/20 04:21:56;;;;;;;;;;;9.00;70.30;;;;;;4936054;29;19958;-90
2021/04/20 04:24:21;;;;;;;;;;;8.90;70.30;;;;;;4937890;29;19913;-90
2021/04/20 04:26:51;;;;;;;;;;;8.80;70.60;;;;;;4935566;29;19915;-90
2021/04/20 04:29:19;;;;;;;;;;;8.80;70.90;;;;;;4936758;29;19970;-90
2021/04/20 04:31:44;;;;;;;;;;;8.70;70.90;;;;;;4937507;29;19949;-90
2021/04/20 04:34:15;;;;;;;;;;;8.70;70.80;;;;;;4920221;29;19911;-90
2021/04/20 04:36:41;;;;;;;;;;;8.70;70.70;;;;;;4918265;29;19911;-91
2021/04/20 04:39:13;;;;;;;;;;;8.70;71.10;;;;;;4918770;29;19915;-92
2021/04/20 04:41:38;;;;;;;;;;;8.70;71.20;;;;;;4931372;29;19930;-92
2021/04/20 04:44:04;;;;;;;;;;;8.70;71.10;;;;;;4937346;29;19949;-92
2021/04/20 04:46:29;;;;;;;;;;;8.70;71.10;;;;;;4941171;29;19919;-93
2021/04/20 04:48:55;;;;;;;;;;;8.70;71.20;;;;;;4936231;29;20255;-93
2021/04/20 04:51:21;;;;;;;;;;;8.70;71.10;;;;;;4940770;29;19911;-93
2021/04/20 04:53:46;;;;;;;;;;;8.70;71.00;;;;;;4937525;29;20009;-92
2021/04/20 04:56:13;;;;;;;;;;;8.70;71.00;;;;;;4936511;29;19914;-91
2021/04/20 04:58:39;;;;;;;;;;;8.80;71.10;;;;;;4936893;29;20049;-91
2021/04/20 05:01:04;;;;;;;;;;;8.80;70.90;;;;;;4935442;29;20369;-90
2021/04/20 05:03:30;;;;;;;;;;;8.90;70.80;;;;;;4941593;29;19941;-90
2021/04/20 05:05:56;;;;;;;;;;;8.90;70.60;;;;;;4940550;29;19918;-90
2021/04/20 05:08:22;;;;;;;;;;;8.90;70.60;;;;;;4924790;29;19919;-90
2021/04/20 05:10:48;;;;;;;;;;;8.90;70.50;;;;;;4926288;29;19978;-90
2021/04/20 05:13:14;;;;;;;;;;;9.00;70.50;;;;;;4938019;29;19997;-90
2021/04/20 05:15:39;;;;;;;;;;;9.00;70.30;;;;;;4950391;28;19953;-89
2021/04/20 05:18:08;;;;;;;;;;;9.00;70.30;;;;;;4932665;29;19966;-90
2021/04/20 05:20:35;;;;;;;;;;;9.10;70.30;;;;;;4928405;29;19961;-89
2021/04/20 05:23:00;;;;;;;;;;;9.10;70.20;;;;;;4938419;29;19915;-92
2021/04/20 05:25:26;;;;;;;;;;;9.10;70.10;;;;;;4939939;29;19958;-93
2021/04/20 05:27:52;;;;;;;;;;;9.20;70.10;;;;;;4947544;28;19926;-96
2021/04/20 05:30:19;;;;;;;;;;;9.30;70.20;;;;;;4940673;29;19918;-93
2021/04/20 05:32:52;;;;;;;;;;;10.10;70.00;;;;;;4935305;29;19925;-91
2021/04/20 05:35:18;;;;;;;;;;;11.00;68.20;;;;;;4940886;29;19910;-93
2021/04/20 05:37:46;;;;;;;;;;;12.00;66.10;;;;;;4941317;29;19917;-94
2021/04/20 05:40:18;;;;;;;;;;;12.80;64.10;;;;;;4932231;29;19915;-91
2021/04/20 05:42:44;;;;;;;;;;;13.60;62.30;;;;;;4948381;28;19911;-90
2021/04/20 05:45:11;;;;;;;;;;;14.50;60.60;;;;;;4941287;29;19926;-90
2021/04/20 05:47:44;;;;;;;;;;;15.10;59.30;;;;;;4939613;29;19922;-89
2021/04/20 05:50:11;;;;;;;;;;;15.50;58.30;;;;;;4934471;29;20428;-90
2021/04/20 05:52:36;;;;;;;;;;;15.70;57.50;;;;;;4938200;29;19917;-91
2021/04/20 05:55:03;;;;;;;;;;;15.90;57.10;;;;;;4932530;29;20317;-92
2021/04/20 05:57:29;;;;;;;;;;;16.10;56.20;;;;;;4922154;29;19911;-88
2021/04/20 05:59:56;;;;;;;;;;;16.30;56.50;;;;;;4933815;29;19906;-87
2021/04/20 06:02:22;;;;;;;;;;;16.70;55.90;;;;;;4931441;29;19914;-87
2021/04/20 06:04:50;;;;;;;;;;;16.90;55.20;;;;;;4934091;29;19911;-91
2021/04/20 06:07:16;;;;;;;;;;;17.20;54.80;;;;;;4934176;29;20203;-90
2021/04/20 06:09:45;;;;;;;;;;;17.40;53.30;;;;;;4934439;29;20014;-91
2021/04/20 06:12:11;;;;;;;;;;;17.60;53.60;;;;;;4934372;29;19911;-91
2021/04/20 06:14:38;;;;;;;;;;;18.00;53.20;;;;;;4935680;29;19913;-90
2021/04/20 06:17:03;;;;;;;;;;;18.20;52.40;;;;;;4935957;29;19907;-92
2021/04/20 06:19:29;;;;;;;;;;;18.40;51.80;;;;;;4939350;28;19914;-92
2021/04/20 06:21:55;;;;;;;;;;;19.00;50.70;;;;;;4928052;29;20289;-89
2021/04/20 06:24:20;;;;;;;;;;;19.00;50.50;;;;;;4935399;29;19910;-92
2021/04/20 06:26:46;;;;;;;;;;;19.40;50.30;;;;;;4934918;29;19914;-89
2021/04/20 06:29:12;;;;;;;;;;;19.50;48.80;;;;;;4937481;29;19922;-92
2021/04/20 06:31:38;;;;;;;;;;;19.70;48.90;;;;;;4928669;29;19910;-89
2021/04/20 06:34:05;;;;;;;;;;;19.90;47.90;;;;;;4932520;29;20552;-88
2021/04/20 06:36:31;;;;;;;;;;;20.00;48.60;;;;;;4931941;29;20386;-89
2021/04/20 06:38:56;;;;;;;;;;;20.10;47.50;;;;;;4930284;29;19942;-88
2021/04/20 06:41:24;;;;;;;;;;;20.40;47.70;;;;;;4929106;29;19965;-88
2021/04/20 06:44:13;;;;;;;;;;;21.00;47.30;;;;;;4933105;29;20417;-92
2021/04/20 06:46:48;;;;;;;;;;;21.30;46.10;;;;;;4928416;29;20429;-91
2021/04/20 06:49:19;;;;;;;;;;;21.00;46.00;;;;;;4934114;29;20005;-90
2021/04/20 06:51:48;;;;;;;;;;;21.00;45.50;;;;;;4931551;29;20355;-89
2021/04/20 06:54:18;;;;;;;;;;;21.10;45.80;;;;;;4930698;29;19911;-87
2021/04/20 06:56:50;;;;;;;;;;;21.20;45.50;;;;;;4943750;29;20345;-91
2021/04/20 06:59:22;;;;;;;;;;;21.20;45.30;;;;;;4931722;28;19983;-88
2021/04/20 07:01:50;;;;;;;;;;;20.90;45.20;;;;;;4959441;28;20420;-88
2021/04/20 07:04:34;;;;;;;;;;;20.80;45.10;;;;;;4944168;28;19910;-90
2021/04/20 07:07:17;;;;;;;;;;;20.80;45.00;;;;;;4940853;29;19925;-87
2021/04/20 07:09:45;;;;;;;;;;;20.60;45.30;;;;;;4937666;28;19911;-90
2021/04/20 07:12:12;;;;;;;;;;;20.70;45.60;;;;;;4935921;29;19915;-89
2021/04/20 07:14:44;;;;;;;;;;;20.80;45.00;;;;;;4940723;29;19911;-91
2021/04/20 07:17:09;;;;;;;;;;;21.00;44.90;;;;;;4933458;29;19957;-90
2021/04/20 07:19:53;;;;;;;;;;;21.10;44.40;;;;;;4939844;29;19948;-90
2021/04/20 07:22:41;;;;;;;;;;;21.20;44.20;;;;;;4934351;29;19918;-91
2021/04/20 07:25:14;;;;;;;;;;;21.00;43.50;;;;;;4938802;29;19910;-89
2021/04/20 07:27:58;;;;;;;;;;;21.50;43.60;;;;;;4939488;29;21302;-89
2021/04/20 07:30:31;;;;;;;;;;;22.20;43.10;;;;;;4935787;29;19960;-93
2021/04/20 07:33:05;;;;;;;;;;;23.20;42.50;;;;;;4936551;29;20358;-91
2021/04/20 07:35:31;;;;;;;;;;;24.10;41.10;;;;;;4934902;29;19911;-90
2021/04/20 07:38:02;;;;;;;;;;;24.30;40.10;;;;;;4954530;28;20593;-90
2021/04/20 07:40:32;;;;;;;;;;;24.40;40.10;;;;;;4920980;29;19918;-93
2021/04/20 07:43:07;;;;;;;;;;;24.90;39.50;;;;;;4933959;29;20468;-92
2021/04/20 07:45:39;;;;;;;;;;;24.70;38.80;;;;;;4942393;29;19914;-91
2021/04/20 07:48:22;;;;;;;;;;;24.90;38.90;;;;;;4936188;29;19919;-91
2021/04/20 07:50:48;;;;;;;;;;;25.10;38.50;;;;;;4927875;29;19911;-92
2021/04/20 07:53:32;;;;;;;;;;;25.10;38.10;;;;;;4932876;29;19957;-92
2021/04/20 07:56:07;;;;;;;;;;;24.80;36.80;;;;;;4960743;28;19914;-92
2021/04/20 07:58:34;;;;;;;;;;;24.70;37.10;;;;;;4933999;29;19965;-90
2021/04/20 08:01:03;;;;;;;;;;;24.60;37.60;;;;;;4928153;29;19911;-91
2021/04/20 08:03:42;;;;;;;;;;;24.40;37.00;;;;;;4939400;28;19917;-91
2021/04/20 08:06:09;;;;;;;;;;;24.80;37.50;;;;;;4949318;28;19961;-91
2021/04/20 08:08:40;;;;;;;;;;;24.60;36.50;;;;;;4938220;28;19919;-91
2021/04/20 08:11:12;;;;;;;;;;;24.40;37.20;;;;;;4946568;29;19917;-91
2021/04/20 08:13:56;;;;;;;;;;;24.60;37.20;;;;;;4931754;29;19914;-90
2021/04/20 08:16:36;;;;;;;;;;;24.70;37.60;;;;;;4927006;29;19919;-91
2021/04/20 08:19:01;;;;;;;;;;;24.90;37.40;;;;;;4935173;29;19966;-90
2021/04/20 08:21:27;;;;;;;;;;;24.70;37.50;;;;;;4937109;29;19919;-90
2021/04/20 08:23:53;;;;;;;;;;;24.20;37.70;;;;;;4934966;29;19913;-91
2021/04/20 08:26:21;;;;;;;;;;;24.20;38.50;;;;;;4936706;29;19911;-91
2021/04/20 08:28:51;;;;;;;;;;;23.90;39.10;;;;;;4940218;28;20441;-89
2021/04/20 08:31:21;;;;;;;;;;;23.60;40.00;;;;;;4936686;29;19921;-89
2021/04/20 08:33:50;;;;;;;;;;;22.90;40.40;;;;;;4932099;29;19926;-89
2021/04/20 08:36:23;;;;;;;;;;;22.30;41.60;;;;;;4936516;29;19915;-90
2021/04/20 08:38:53;;;;;;;;;;;21.80;42.40;;;;;;4928815;29;19914;-90
2021/04/20 08:41:38;;;;;;;;;;;21.10;42.70;;;;;;4924024;29;19915;-90
2021/04/20 08:44:19;;;;;;;;;;;20.70;43.90;;;;;;4935440;29;19911;-91
2021/04/20 08:46:54;;;;;;;;;;;20.10;44.50;;;;;;4933585;29;19919;-91
2021/04/20 08:49:46;;;;;;;;;;;19.60;45.00;;;;;;4942582;29;19910;-91
2021/04/20 08:52:28;;;;;;;;;;;19.30;46.20;;;;;;4934988;29;19915;-88
2021/04/20 08:55:05;;;;;;;;;;;19.00;46.80;;;;;;4928829;29;19915;-91
2021/04/20 08:58:02;;;;;;;;;;;19.00;47.20;;;;;;4933713;28;20386;-92
2021/04/20 09:01:03;;;;;;;;;;;18.90;46.50;;;;;;4885962;29;19912;-96
2021/04/20 09:03:32;;;;;;;;;;;18.60;47.10;;;;;;4875335;29;20075;-95
2021/04/20 09:06:04;;;;;;;;;;;18.50;47.90;;;;;;4934671;29;20388;-94
2021/04/20 09:08:32;;;;;;;;;;;18.60;48.20;;;;;;4938867;29;19958;-94
2021/04/20 09:11:03;;;;;;;;;;;18.60;48.30;;;;;;4943799;29;20309;-92
2021/04/20 09:13:31;;;;;;;;;;;18.70;48.10;;;;;;4951105;28;19915;-93
2021/04/20 09:16:02;;;;;;;;;;;18.80;47.90;;;;;;4942238;28;19906;-92
2021/04/20 09:18:38;;;;;;;;;;;18.60;47.40;;;;;;4925077;29;20012;-92
2021/04/20 09:21:06;;;;;;;;;;;18.60;47.90;;;;;;4936793;29;19906;-92
2021/04/20 09:23:50;;;;;;;;;;;18.60;47.70;;;;;;4937593;29;19906;-90
2021/04/20 09:26:15;;;;;;;;;;;18.50;47.60;;;;;;4933700;29;19914;-93
2021/04/20 09:28:44;;;;;;;;;;;18.50;47.40;;;;;;4943308;29;19925;-92
2021/04/20 09:31:17;;;;;;;;;;;18.50;47.10;;;;;;4946360;29;19914;-94
2021/04/20 09:33:46;;;;;;;;;;;18.50;47.20;;;;;;4929679;29;19914;-94
2021/04/20 09:36:12;;;;;;;;;;;18.70;47.50;;;;;;4931387;28;19911;-95
2021/04/20 09:38:42;;;;;;;;;;;18.90;47.40;;;;;;4936034;28;20013;-90
2021/04/20 09:41:08;;;;;;;;;;;18.90;47.00;;;;;;4941104;29;20009;-95
2021/04/20 09:43:39;;;;;;;;;;;18.90;45.80;;;;;;4935886;29;19942;-96
2021/04/20 09:46:21;;;;;;;;;;;18.90;46.10;;;;;;4936684;29;19946;-95
2021/04/20 09:48:54;;;;;;;;;;;18.90;46.30;;;;;;4937098;29;19914;-93
2021/04/20 09:51:26;;;;;;;;;;;19.00;45.80;;;;;;4933982;29;19911;-91
2021/04/20 09:53:51;;;;;;;;;;;19.00;45.60;;;;;;4940571;28;19942;-90
2021/04/20 09:56:16;;;;;;;;;;;18.90;44.80;;;;;;4934252;29;19910;-92
2021/04/20 09:58:43;;;;;;;;;;;19.10;45.50;;;;;;4937016;29;19910;-90
2021/04/20 10:01:13;;;;;;;;;;;19.30;45.20;;;;;;4942054;28;19910;-90
2021/04/20 10:03:45;;;;;;;;;;;19.20;44.10;;;;;;4955504;29;19922;-92
2021/04/20 10:06:13;;;;;;;;;;;19.10;44.10;;;;;;4950123;28;19914;-90
2021/04/20 10:08:44;;;;;;;;;;;19.10;43.70;;;;;;4924071;29;20385;-89
2021/04/20 10:11:19;;;;;;;;;;;19.00;44.00;;;;;;4935187;29;20393;-87
2021/04/20 10:13:50;;;;;;;;;;;19.00;43.80;;;;;;4930849;29;19938;-89
2021/04/20 10:16:21;;;;;;;;;;;19.00;43.50;;;;;;4929265;29;20170;-89
2021/04/20 10:18:49;;;;;;;;;;;19.00;41.70;;;;;;4941951;29;20401;-88
2021/04/20 10:21:26;;;;;;;;;;;19.00;41.70;;;;;;4950880;28;19910;-89
2021/04/20 10:24:10;;;;;;;;;;;19.00;42.10;;;;;;4951266;28;19911;-86
2021/04/20 10:26:45;;;;;;;;;;;19.30;42.50;;;;;;4923882;29;19925;-87
2021/04/20 10:29:31;;;;;;;;;;;19.50;41.60;;;;;;4933290;29;20377;-87
2021/04/20 10:32:15;;;;;;;;;;;19.50;41.60;;;;;;4928679;29;19961;-86
2021/04/20 10:34:48;;;;;;;;;;;19.40;41.60;;;;;;4931878;29;20391;-87
2021/04/20 10:37:15;;;;;;;;;;;19.50;42.10;;;;;;4929263;29;19946;-88
2021/04/20 10:39:47;;;;;;;;;;;19.80;41.90;;;;;;4927584;29;20391;-91
2021/04/20 10:42:13;;;;;;;;;;;19.80;39.70;;;;;;4931958;29;20358;-91
2021/04/20 10:44:39;;;;;;;;;;;19.70;39.60;;;;;;4941320;29;19953;-92
2021/04/20 10:47:04;;;;;;;;;;;19.80;40.80;;;;;;4937460;29;19914;-91
2021/04/20 10:49:31;;;;;;;;;;;19.90;40.20;;;;;;4936210;29;20017;-91
2021/04/20 10:51:58;;;;;;;;;;;20.00;39.40;;;;;;4934413;28;20768;-92
2021/04/20 10:54:44;;;;;;;;;;;20.00;39.90;;;;;;4942219;29;19933;-92
2021/04/20 10:57:19;;;;;;;;;;;20.20;40.20;;;;;;4940811;28;19919;-95
2021/04/20 10:59:51;;;;;;;;;;;20.20;39.10;;;;;;4936925;28;20072;-91
2021/04/20 11:02:32;;;;;;;;;;;20.40;39.50;;;;;;4934579;29;19942;-94
2021/04/20 11:05:00;;;;;;;;;;;20.50;39.30;;;;;;4948741;29;19911;-91
2021/04/20 11:07:41;;;;;;;;;;;20.60;38.90;;;;;;4942121;28;19945;-90
2021/04/20 11:10:15;;;;;;;;;;;20.40;36.70;;;;;;4939928;29;20353;-93
2021/04/20 11:12:45;;;;;;;;;;;20.20;37.50;;;;;;4931738;29;19911;-93
2021/04/20 11:15:22;;;;;;;;;;;20.40;38.40;;;;;;4944893;29;20368;-91
2021/04/20 11:17:53;;;;;;;;;;;20.60;38.20;;;;;;4935676;29;19953;-90
2021/04/20 11:20:39;;;;;;;;;;;20.50;37.60;;;;;;4959411;28;20412;-92
2021/04/20 11:23:08;;;;;;;;;;;20.40;37.30;;;;;;4941298;29;19926;-90
2021/04/20 11:25:48;;;;;;;;;;;20.60;38.00;;;;;;4921681;29;19906;-93
2021/04/20 11:28:45;;;;;;;;;;;20.40;36.40;;;;;;4954300;28;19926;-90
2021/04/20 11:31:34;;;;;;;;;;;20.40;37.30;;;;;;4938324;29;19957;-90
2021/04/20 11:34:18;;;;;;;;;;;20.40;37.50;;;;;;4934441;29;19918;-91
2021/04/20 11:36:45;;;;;;;;;;;20.70;37.70;;;;;;4952856;28;19966;-90
2021/04/20 11:39:12;;;;;;;;;;;20.90;37.50;;;;;;4932347;28;19911;-90
2021/04/20 11:41:47;;;;;;;;;;;20.90;37.60;;;;;;4929674;29;19911;-92
2021/04/20 11:44:13;;;;;;;;;;;21.00;37.10;;;;;;4932213;29;20462;-88
2021/04/20 11:46:40;;;;;;;;;;;21.10;37.20;;;;;;4936493;29;19922;-89
2021/04/20 11:49:27;;;;;;;;;;;21.10;36.80;;;;;;4939855;29;19915;-89
2021/04/20 11:51:55;;;;;;;;;;;20.90;36.90;;;;;;4935928;29;19922;-89
2021/04/20 11:54:25;;;;;;;;;;;21.10;36.90;;;;;;4944690;28;19914;-92
2021/04/20 11:56:53;;;;;;;;;;;20.90;36.80;;;;;;4955897;28;19991;-91
2021/04/20 11:59:28;;;;;;;;;;;20.80;36.90;;;;;;4939489;29;20037;-92
2021/04/20 12:01:55;;;;;;;;;;;20.70;36.70;;;;;;4960766;28;19910;-91
2021/04/20 12:04:22;;;;;;;;;;;20.60;37.20;;;;;;4951758;28;19969;-90
2021/04/20 12:06:49;;;;;;;;;;;20.80;37.20;;;;;;4942024;29;19919;-91
2021/04/20 12:09:15;;;;;;;;;;;20.90;37.50;;;;;;4948473;29;19915;-90
2021/04/20 12:11:41;;;;;;;;;;;21.20;37.60;;;;;;4941370;29;19970;-91
2021/04/20 12:14:09;;;;;;;;;;;21.50;37.20;;;;;;4944892;28;19953;-90
2021/04/20 12:16:36;;;;;;;;;;;21.30;36.20;;;;;;4943766;29;19914;-91
2021/04/20 12:19:04;;;;;;;;;;;21.50;36.70;;;;;;4937629;29;19911;-91
2021/04/20 12:21:30;;;;;;;;;;;21.30;34.70;;;;;;4932812;29;19996;-90
2021/04/20 12:23:58;;;;;;;;;;;21.10;35.80;;;;;;4946450;29;20948;-93
2021/04/20 12:26:28;;;;;;;;;;;21.30;36.20;;;;;;4944863;29;19933;-91
2021/04/20 12:28:56;;;;;;;;;;;21.40;35.70;;;;;;4945123;29;19922;-92
2021/04/20 12:31:28;;;;;;;;;;;21.20;35.00;;;;;;4939749;29;19906;-91
2021/04/20 12:33:58;;;;;;;;;;;21.40;35.70;;;;;;4946380;29;19918;-93
2021/04/20 12:36:28;;;;;;;;;;;21.60;35.80;;;;;;4951592;29;20361;-91
2021/04/20 12:38:55;;;;;;;;;;;21.90;35.30;;;;;;4951804;28;20399;-89
2021/04/20 12:41:21;;;;;;;;;;;22.10;35.50;;;;;;4946892;29;19922;-92
2021/04/20 12:43:48;;;;;;;;;;;22.10;34.80;;;;;;4942644;29;19944;-92
2021/04/20 12:46:14;;;;;;;;;;;22.10;35.20;;;;;;4941922;29;19906;-92
2021/04/20 12:48:43;;;;;;;;;;;22.30;35.00;;;;;;4945013;29;19930;-93
2021/04/20 12:51:16;;;;;;;;;;;22.20;35.10;;;;;;4940230;28;20380;-91
2021/04/20 12:53:45;;;;;;;;;;;22.00;35.00;;;;;;4949940;29;19927;-92
2021/04/20 12:56:12;;;;;;;;;;;21.80;36.20;;;;;;4948424;28;19973;-92
2021/04/20 12:58:40;;;;;;;;;;;22.00;36.40;;;;;;4945062;29;19911;-94
2021/04/20 13:01:06;;;;;;;;;;;22.10;36.30;;;;;;4956457;29;19910;-93
2021/04/20 13:03:33;;;;;;;;;;;21.90;35.30;;;;;;4948109;29;19906;-93
2021/04/20 13:06:06;;;;;;;;;;;21.60;36.20;;;;;;4939885;29;19961;-92
2021/04/20 13:08:32;;;;;;;;;;;21.60;36.60;;;;;;4951497;29;19918;-96
2021/04/20 13:10:58;;;;;;;;;;;21.50;36.70;;;;;;4956718;28;20382;-94
2021/04/20 13:13:29;;;;;;;;;;;21.50;36.80;;;;;;4955695;29;19966;-91
2021/04/20 13:15:55;;;;;;;;;;;21.80;36.80;;;;;;4947856;29;20003;-96
2021/04/20 13:18:23;;;;;;;;;;;22.20;36.50;;;;;;4943851;29;19911;-96
2021/04/20 13:21:00;;;;;;;;;;;22.30;35.80;;;;;;4939886;29;19915;-94
2021/04/20 13:23:36;;;;;;;;;;;22.60;35.80;;;;;;4954474;29;19948;-96
2021/04/20 13:26:08;;;;;;;;;;;22.80;35.30;;;;;;4952461;28;19911;-93
2021/04/20 13:28:38;;;;;;;;;;;23.00;35.20;;;;;;4957100;29;20017;-96
2021/04/20 13:31:24;;;;;;;;;;;23.00;34.50;;;;;;4945631;29;19907;-92
2021/04/20 13:33:51;;;;;;;;;;;23.20;34.00;;;;;;4954242;29;19918;-92
2021/04/20 13:36:19;;;;;;;;;;;23.10;33.70;;;;;;4957839;28;19910;-94
2021/04/20 13:38:57;;;;;;;;;;;23.00;33.90;;;;;;5046148;23;19921;-96
2021/04/20 13:46:30;;;;;;;;;;;22.80;34.70;;;;;;4947373;29;19923;-95
2021/04/20 13:49:05;;;;;;;;;;;22.90;34.90;;;;;;4956353;29;20377;-95
2021/04/20 13:51:30;;;;;;;;;;;23.00;34.50;;;;;;4950343;29;20420;-94
2021/04/20 13:54:00;;;;;;;;;;;22.70;34.40;;;;;;4951506;29;19915;-96
2021/04/20 13:56:26;;;;;;;;;;;22.40;34.50;;;;;;4953403;29;20310;-93
2021/04/20 13:58:57;;;;;;;;;;;22.20;35.20;;;;;;4941886;29;19919;-94
2021/04/20 14:01:26;;;;;;;;;;;22.10;35.40;;;;;;4944915;29;19950;-96
2021/04/20 14:03:54;;;;;;;;;;;22.30;35.90;;;;;;4942771;29;19950;-94
2021/04/20 14:06:19;;;;;;;;;;;22.70;35.80;;;;;;4959609;28;19942;-95
2021/04/20 14:08:54;;;;;;;;;;;22.90;35.50;;;;;;4960443;28;19925;-96
2021/04/20 14:11:22;;;;;;;;;;;23.20;35.20;;;;;;4962102;28;19915;-95
2021/04/20 14:13:48;;;;;;;;;;;23.20;34.80;;;;;;4960353;28;19934;-96
2021/04/20 14:16:15;;;;;;;;;;;23.20;34.50;;;;;;4952453;29;19915;-95
2021/04/20 14:18:42;;;;;;;;;;;23.00;33.60;;;;;;4953929;29;19914;-95
2021/04/20 14:21:19;;;;;;;;;;;22.60;34.00;;;;;;4964048;29;19910;-89
2021/04/20 14:23:45;;;;;;;;;;;22.50;34.70;;;;;;4955166;28;19942;-94
2021/04/20 14:26:15;;;;;;;;;;;22.50;35.10;;;;;;4958552;29;19915;-95
2021/04/20 14:28:42;;;;;;;;;;;22.60;35.40;;;;;;4953531;29;19999;-94
2021/04/20 14:31:08;;;;;;;;;;;22.60;35.50;;;;;;4953789;29;19914;-93
2021/04/20 14:33:37;;;;;;;;;;;22.40;35.60;;;;;;4954852;29;19911;-95
2021/04/20 14:36:08;;;;;;;;;;;21.90;35.50;;;;;;4958972;28;19914;-91
2021/04/20 14:38:36;;;;;;;;;;;21.60;36.20;;;;;;4953070;29;19941;-93